Time;durP1;ratioP1;P1;durP2;ratioP2;P2;SDS_P1;SDS_P2;PMS_P1;PMS_P2;Temp;Humidity;BMP_temperature;BMP_pressure;BME280_temperature;BME280_humidity;BME280_pressure;Samples;Min_cycle;Max_cycle;Signal;HPM_P1;HPM_P2
2021/11/16 00:00:39;;;;;;;21.73;6.90;;;14.50;96.10;;;;;;5061096;28;20273;-63
2021/11/16 00:03:05;;;;;;;19.77;5.83;;;14.50;95.80;;;;;;5063712;28;20266;-64
2021/11/16 00:05:32;;;;;;;13.13;6.60;;;14.50;95.60;;;;;;5067151;28;20671;-63
2021/11/16 00:07:58;;;;;;;13.00;6.50;;;14.50;95.60;;;;;;5057508;28;20201;-63
2021/11/16 00:10:25;;;;;;;16.80;6.27;;;14.40;95.50;;;;;;5074878;28;20627;-63
2021/11/16 00:12:52;;;;;;;17.60;5.77;;;14.40;95.50;;;;;;5063145;28;20734;-64
2021/11/16 00:15:18;;;;;;;16.60;6.10;;;14.40;95.40;;;;;;5060224;28;20647;-63
2021/11/16 00:17:45;;;;;;;22.80;6.77;;;14.40;95.40;;;;;;5062059;28;20624;-63
2021/11/16 00:20:13;;;;;;;20.53;6.07;;;14.40;95.40;;;;;;5061519;28;20295;-62
2021/11/16 00:22:41;;;;;;;15.67;6.60;;;14.40;95.30;;;;;;5043619;28;20210;-62
2021/11/16 00:27:43;;;;;;;18.53;5.57;;;14.40;95.10;;;;;;5061956;28;20198;-62
2021/11/16 00:30:11;;;;;;;18.73;5.83;;;14.40;94.90;;;;;;5052788;28;20276;-62
2021/11/16 00:32:38;;;;;;;13.07;5.73;;;14.40;94.90;;;;;;5050484;28;20191;-62
2021/11/16 00:35:07;;;;;;;19.93;6.00;;;14.40;94.90;;;;;;5055741;28;20191;-63
2021/11/16 00:37:33;;;;;;;19.23;5.63;;;14.30;94.70;;;;;;5050700;28;20385;-64
2021/11/16 00:40:05;;;;;;;17.67;6.17;;;14.30;94.80;;;;;;5047902;28;20218;-62
2021/11/16 00:42:32;;;;;;;20.67;6.43;;;14.30;94.60;;;;;;5062033;28;20183;-63
2021/11/16 00:44:58;;;;;;;20.17;6.27;;;14.30;94.60;;;;;;5060565;28;20199;-64
2021/11/16 00:47:25;;;;;;;16.23;5.73;;;14.30;94.80;;;;;;5057860;28;20186;-62
2021/11/16 00:49:51;;;;;;;15.27;6.13;;;14.30;94.60;;;;;;5057285;28;20294;-63
2021/11/16 00:52:19;;;;;;;12.50;5.47;;;14.30;94.40;;;;;;5055844;28;20188;-63
2021/11/16 00:54:46;;;;;;;22.77;5.80;;;14.20;94.10;;;;;;5055918;28;20194;-63
2021/11/16 00:57:12;;;;;;;21.20;5.63;;;14.20;94.10;;;;;;5047775;28;20191;-62
2021/11/16 00:59:39;;;;;;;12.70;5.93;;;14.10;94.10;;;;;;5058866;28;20222;-63
2021/11/16 01:02:05;;;;;;;19.80;5.47;;;14.10;94.10;;;;;;5054881;28;21076;-63
2021/11/16 01:04:32;;;;;;;18.90;6.43;;;14.10;94.00;;;;;;5046190;28;20184;-62
2021/11/16 01:07:00;;;;;;;18.67;5.47;;;14.00;93.90;;;;;;5063669;28;20220;-63
2021/11/16 01:09:26;;;;;;;19.17;6.30;;;14.00;93.60;;;;;;5055663;28;20248;-64
2021/11/16 01:11:52;;;;;;;17.00;6.03;;;14.00;93.40;;;;;;5058907;28;20634;-63
2021/11/16 01:14:19;;;;;;;14.90;5.33;;;14.00;93.40;;;;;;5066263;28;20244;-62
2021/11/16 01:16:46;;;;;;;18.07;5.57;;;14.10;93.50;;;;;;5065241;28;20190;-64
2021/11/16 01:19:13;;;;;;;20.13;6.13;;;14.10;93.50;;;;;;5060804;28;20198;-63
2021/11/16 01:21:39;;;;;;;16.60;5.50;;;14.10;93.90;;;;;;5055268;28;20183;-63
2021/11/16 01:24:08;;;;;;;23.23;5.63;;;14.10;93.80;;;;;;5052676;28;20282;-63
2021/11/16 01:26:36;;;;;;;19.47;5.50;;;14.10;93.60;;;;;;5059930;28;20837;-64
2021/11/16 01:29:05;;;;;;;17.17;5.43;;;14.00;93.60;;;;;;5062072;28;20278;-63
2021/11/16 01:31:32;;;;;;;11.37;5.23;;;14.00;93.70;;;;;;5059985;28;20757;-63
2021/11/16 01:33:59;;;;;;;21.27;5.63;;;14.00;93.70;;;;;;5053472;28;20190;-63
2021/11/16 01:36:27;;;;;;;19.33;6.00;;;14.00;93.40;;;;;;5050631;28;20214;-64
2021/11/16 01:38:58;;;;;;;20.57;6.07;;;14.00;93.50;;;;;;5055450;28;20274;-63
2021/11/16 01:41:26;;;;;;;17.77;5.07;;;14.00;93.60;;;;;;5054426;28;20182;-62
2021/11/16 01:43:53;;;;;;;11.00;5.63;;;13.90;93.30;;;;;;5058891;28;20315;-63
2021/11/16 01:46:20;;;;;;;17.00;5.77;;;13.90;93.20;;;;;;5057031;28;20268;-63
2021/11/16 01:48:52;;;;;;;12.87;5.37;;;13.80;93.10;;;;;;5061501;28;20656;-62
2021/11/16 01:51:22;;;;;;;19.23;5.33;;;13.80;93.20;;;;;;5056265;28;20658;-62
2021/11/16 01:54:01;;;;;;;14.27;5.20;;;13.80;93.20;;;;;;5059462;28;20559;-63
2021/11/16 01:56:40;;;;;;;19.20;5.87;;;13.70;93.10;;;;;;5052662;28;20191;-63
2021/11/16 01:59:08;;;;;;;16.93;5.80;;;13.70;93.30;;;;;;5042066;28;20657;-64
2021/11/16 02:01:37;;;;;;;15.37;6.57;;;13.70;93.40;;;;;;5060195;28;20195;-63
2021/11/16 02:04:05;;;;;;;19.27;5.73;;;13.60;93.40;;;;;;5064170;28;20194;-64
2021/11/16 02:06:38;;;;;;;14.80;6.10;;;13.60;93.50;;;;;;5051744;28;20180;-63
2021/11/16 02:09:08;;;;;;;18.60;6.07;;;13.60;93.40;;;;;;5056703;28;20183;-63
2021/11/16 02:11:36;;;;;;;20.93;6.20;;;13.60;93.40;;;;;;5053673;28;20187;-64
2021/11/16 02:14:08;;;;;;;15.50;5.70;;;13.60;93.50;;;;;;5061657;28;20180;-63
2021/11/16 02:16:38;;;;;;;11.83;5.50;;;13.60;93.30;;;;;;5061540;28;20202;-64
2021/11/16 02:19:11;;;;;;;11.67;5.47;;;13.60;93.30;;;;;;5057554;28;20316;-64
2021/11/16 02:21:39;;;;;;;20.67;6.03;;;13.70;93.30;;;;;;5062891;28;20638;-63
2021/11/16 02:24:09;;;;;;;14.07;5.33;;;13.60;93.30;;;;;;5053398;28;20219;-64
2021/11/16 02:26:37;;;;;;;13.73;5.50;;;13.60;93.20;;;;;;5060024;28;20257;-63
2021/11/16 02:29:05;;;;;;;15.57;5.73;;;13.60;93.00;;;;;;5059790;28;20620;-64
2021/11/16 02:31:32;;;;;;;20.67;5.70;;;13.60;93.20;;;;;;5065669;28;20658;-63
2021/11/16 02:33:59;;;;;;;22.23;5.90;;;13.60;93.20;;;;;;5063980;28;20218;-63
2021/11/16 02:36:32;;;;;;;20.67;5.33;;;13.60;93.30;;;;;;5057820;28;20191;-63
2021/11/16 02:38:59;;;;;;;21.10;5.73;;;13.60;93.20;;;;;;5058065;28;20218;-61
2021/11/16 02:41:31;;;;;;;23.03;6.47;;;13.60;93.00;;;;;;5064071;28;20279;-63
2021/11/16 02:44:05;;;;;;;21.43;5.43;;;13.60;92.70;;;;;;5055240;28;20194;-63
2021/11/16 02:46:33;;;;;;;15.47;5.60;;;13.60;92.90;;;;;;5056015;28;20195;-63
2021/11/16 02:49:00;;;;;;;15.50;5.43;;;13.60;92.90;;;;;;5047161;28;20329;-62
2021/11/16 02:51:32;;;;;;;15.40;5.60;;;13.60;92.70;;;;;;5063467;28;20224;-62
2021/11/16 02:54:00;;;;;;;13.23;5.33;;;13.60;92.90;;;;;;5051191;28;20932;-62
2021/11/16 02:56:26;;;;;;;17.37;5.80;;;13.60;92.80;;;;;;5050546;28;20288;-63
2021/11/16 02:58:53;;;;;;;9.43;5.37;;;13.70;92.80;;;;;;5048468;28;20198;-63
2021/11/16 03:01:20;;;;;;;22.33;5.90;;;13.70;92.70;;;;;;5054543;28;20219;-62
2021/11/16 03:03:47;;;;;;;28.93;6.47;;;13.70;92.70;;;;;;5061610;28;20259;-61
2021/11/16 03:06:14;;;;;;;17.80;5.17;;;13.60;92.60;;;;;;5055060;28;20687;-63
2021/11/16 03:08:42;;;;;;;19.97;5.33;;;13.60;92.70;;;;;;5056862;28;20191;-62
2021/11/16 03:11:11;;;;;;;15.83;5.57;;;13.60;92.80;;;;;;5055988;28;20197;-62
2021/11/16 03:13:39;;;;;;;15.30;6.00;;;13.50;92.70;;;;;;5059037;28;20195;-62
2021/11/16 03:16:12;;;;;;;16.77;5.17;;;13.50;92.90;;;;;;5059547;28;20748;-63
2021/11/16 03:18:39;;;;;;;17.93;5.47;;;13.60;93.00;;;;;;5059164;28;20210;-62
2021/11/16 03:21:07;;;;;;;12.20;5.03;;;13.60;93.10;;;;;;5050247;28;20211;-62
2021/11/16 03:23:34;;;;;;;16.27;6.03;;;13.60;93.20;;;;;;5053587;28;20218;-62
2021/11/16 03:26:02;;;;;;;20.90;6.23;;;13.60;93.10;;;;;;5054477;28;20187;-63
2021/11/16 03:28:34;;;;;;;18.83;5.77;;;13.60;93.10;;;;;;5059364;28;20596;-62
2021/11/16 03:31:10;;;;;;;19.47;5.90;;;13.60;93.30;;;;;;5063111;28;20198;-64
2021/11/16 03:33:39;;;;;;;19.93;5.73;;;13.60;93.60;;;;;;5059040;28;20198;-63
2021/11/16 03:36:06;;;;;;;16.13;6.13;;;13.60;93.70;;;;;;5064508;28;20757;-63
2021/11/16 03:38:33;;;;;;;18.57;5.67;;;13.60;93.50;;;;;;5061497;28;20182;-62
2021/11/16 03:41:00;;;;;;;16.80;5.10;;;13.60;93.40;;;;;;5057309;28;20302;-63
2021/11/16 03:43:26;;;;;;;13.20;5.33;;;13.60;93.30;;;;;;5059402;28;20270;-63
2021/11/16 03:45:53;;;;;;;10.90;5.10;;;13.60;93.20;;;;;;5063400;28;20199;-63
2021/11/16 03:48:20;;;;;;;15.47;5.73;;;13.60;93.20;;;;;;5061839;28;20189;-62
2021/11/16 03:50:47;;;;;;;18.27;5.60;;;13.50;93.20;;;;;;5054485;28;20183;-64
2021/11/16 03:53:14;;;;;;;19.87;5.37;;;13.50;93.40;;;;;;5059160;28;20199;-63
2021/11/16 03:55:43;;;;;;;35.50;7.27;;;13.50;93.50;;;;;;5056303;28;20201;-63
2021/11/16 03:58:16;;;;;;;14.93;5.57;;;13.60;93.50;;;;;;5061813;28;20190;-63
2021/11/16 04:00:58;;;;;;;15.87;5.77;;;13.60;93.90;;;;;;5066303;28;20344;-63
2021/11/16 04:03:29;;;;;;;14.20;5.50;;;13.50;94.00;;;;;;5064958;28;20213;-63
2021/11/16 04:05:56;;;;;;;13.30;5.77;;;13.50;94.10;;;;;;5062477;28;20307;-63
2021/11/16 04:08:23;;;;;;;15.00;5.47;;;13.40;94.30;;;;;;5062156;28;20289;-63
2021/11/16 04:10:51;;;;;;;15.87;5.40;;;13.40;94.40;;;;;;5055290;28;20199;-64
2021/11/16 04:13:18;;;;;;;20.23;5.70;;;13.40;94.60;;;;;;5063712;28;20190;-63
2021/11/16 04:15:47;;;;;;;13.23;5.87;;;13.40;94.80;;;;;;5057890;28;20198;-63
2021/11/16 04:18:15;;;;;;;10.00;5.97;;;13.40;95.30;;;;;;5065003;28;20544;-63
2021/11/16 04:20:46;;;;;;;13.83;5.80;;;13.40;95.60;;;;;;5065737;28;20217;-64
2021/11/16 04:23:16;;;;;;;15.83;6.13;;;13.40;95.90;;;;;;5054683;28;20622;-63
2021/11/16 04:25:45;;;;;;;10.73;5.90;;;13.50;96.20;;;;;;5048927;28;20658;-63
2021/11/16 04:28:14;;;;;;;19.37;6.00;;;13.50;96.10;;;;;;5039830;28;20179;-63
2021/11/16 04:30:43;;;;;;;17.67;6.67;;;13.50;96.00;;;;;;5060193;28;20187;-62
2021/11/16 04:33:12;;;;;;;23.67;5.93;;;13.50;96.30;;;;;;5064501;28;20201;-63
2021/11/16 04:35:40;;;;;;;12.30;5.60;;;13.50;94.20;;;;;;5060491;28;20186;-63
2021/11/16 04:38:10;;;;;;;18.63;6.03;;;13.50;94.00;;;;;;5054914;28;20183;-63
2021/11/16 04:40:43;;;;;;;24.77;5.60;;;13.40;93.50;;;;;;5054722;28;20716;-63
2021/11/16 04:43:18;;;;;;;8.07;5.00;;;13.40;93.40;;;;;;5067022;28;20183;-62
2021/11/16 04:45:48;;;;;;;13.87;4.87;;;13.40;93.50;;;;;;5053590;28;20191;-64
2021/11/16 04:51:35;;;;;;;14.40;6.00;;;13.40;93.80;;;;;;5061088;28;20210;-62
2021/11/16 05:04:40;;;;;;;21.00;6.00;;;13.50;95.40;;;;;;5060056;28;20202;-64
2021/11/16 05:07:17;;;;;;;13.33;6.30;;;13.50;95.70;;;;;;5060105;28;20190;-63
2021/11/16 05:09:53;;;;;;;22.23;6.33;;;13.50;95.60;;;;;;5054711;28;20213;-62
2021/11/16 05:12:22;;;;;;;17.73;6.03;;;13.50;95.40;;;;;;5041713;28;20183;-64
2021/11/16 05:14:49;;;;;;;16.27;6.20;;;13.60;95.50;;;;;;5068400;28;20190;-63
2021/11/16 05:17:15;;;;;;;14.43;5.50;;;13.60;95.60;;;;;;5059960;28;20287;-65
2021/11/16 05:19:42;;;;;;;13.80;5.60;;;13.60;95.80;;;;;;5060760;28;20237;-64
2021/11/16 05:22:08;;;;;;;13.87;6.03;;;13.60;96.00;;;;;;5064872;28;20171;-65
2021/11/16 05:24:35;;;;;;;15.37;5.97;;;13.70;96.30;;;;;;5056823;28;20493;-64
2021/11/16 05:27:02;;;;;;;16.60;6.17;;;13.70;96.50;;;;;;5049271;28;20980;-64
2021/11/16 05:29:28;;;;;;;18.70;6.20;;;13.70;96.30;;;;;;5060418;28;20290;-64
2021/11/16 05:31:54;;;;;;;15.23;5.33;;;13.80;96.00;;;;;;5053454;28;20191;-64
2021/11/16 05:34:20;;;;;;;10.30;5.47;;;13.80;95.70;;;;;;5057151;28;20210;-64
2021/11/16 05:36:47;;;;;;;24.90;6.47;;;13.90;95.70;;;;;;5052359;28;20584;-63
2021/11/16 05:39:14;;;;;;;21.73;6.07;;;13.90;95.60;;;;;;5054492;28;20186;-64
2021/11/16 05:41:40;;;;;;;12.93;4.97;;;14.00;95.60;;;;;;5061503;28;20183;-63
2021/11/16 05:44:07;;;;;;;23.57;5.67;;;14.00;95.50;;;;;;5055899;28;20228;-62
2021/11/16 05:46:34;;;;;;;16.57;5.73;;;14.10;95.50;;;;;;5060612;28;20227;-62
2021/11/16 05:49:01;;;;;;;15.90;6.30;;;14.20;95.90;;;;;;5056325;28;20691;-64
2021/11/16 05:51:28;;;;;;;18.80;5.83;;;14.20;96.70;;;;;;5063914;28;20892;-63
2021/11/16 05:54:00;;;;;;;20.57;6.10;;;14.30;97.10;;;;;;5058365;28;21110;-64
2021/11/16 05:56:31;;;;;;;17.80;5.80;;;14.40;97.20;;;;;;5056130;28;20251;-63
2021/11/16 05:58:59;;;;;;;21.03;6.40;;;14.40;97.00;;;;;;5058183;28;20281;-63
2021/11/16 06:01:30;;;;;;;25.63;6.57;;;14.50;97.10;;;;;;5057750;28;20240;-63
2021/11/16 06:03:58;;;;;;;22.97;5.70;;;14.50;97.30;;;;;;5058959;28;20221;-63
2021/11/16 06:06:31;;;;;;;15.50;5.13;;;14.60;97.80;;;;;;5053121;28;20183;-63
2021/11/16 06:09:00;;;;;;;25.60;6.37;;;14.70;97.80;;;;;;5064575;28;20186;-64
2021/11/16 06:11:27;;;;;;;16.77;6.30;;;14.70;97.90;;;;;;5062068;28;20194;-62
2021/11/16 06:13:56;;;;;;;18.27;6.20;;;14.80;98.00;;;;;;5066989;28;20776;-63
2021/11/16 06:16:22;;;;;;;11.67;5.90;;;14.80;98.50;;;;;;5063299;28;20838;-64
2021/11/16 06:18:53;;;;;;;18.57;6.00;;;14.90;99.10;;;;;;5062598;28;20282;-64
2021/11/16 06:21:22;;;;;;;14.00;6.57;;;14.90;99.70;;;;;;5062728;28;20218;-63
2021/11/16 06:23:49;;;;;;;16.83;5.70;;;15.00;99.90;;;;;;5061127;28;20249;-64
2021/11/16 06:26:16;;;;;;;24.97;7.47;;;15.10;99.90;;;;;;5056801;28;20179;-63
2021/11/16 06:28:43;;;;;;;17.30;6.03;;;15.20;99.90;;;;;;5057887;28;20194;-63
2021/11/16 06:31:10;;;;;;;18.57;5.80;;;15.30;99.90;;;;;;5050028;28;20321;-63
2021/11/16 06:33:36;;;;;;;17.00;6.27;;;15.30;99.90;;;;;;5059855;28;20206;-62
2021/11/16 06:36:03;;;;;;;16.80;5.97;;;15.40;99.60;;;;;;5045354;28;20318;-63
2021/11/16 06:38:29;;;;;;;19.23;5.87;;;15.40;99.40;;;;;;5055538;28;20198;-61
2021/11/16 06:40:56;;;;;;;23.27;6.47;;;15.50;99.10;;;;;;5063545;28;20254;-61
2021/11/16 06:43:29;;;;;;;13.47;5.70;;;15.70;98.70;;;;;;5051940;28;20221;-63
2021/11/16 06:46:00;;;;;;;18.47;5.60;;;15.70;98.20;;;;;;5055134;28;20190;-67
2021/11/16 06:48:27;;;;;;;14.67;5.90;;;15.70;98.00;;;;;;5050515;28;20192;-65
2021/11/16 06:50:54;;;;;;;25.53;5.67;;;15.80;97.60;;;;;;5056903;28;20630;-65
2021/11/16 06:53:34;;;;;;;20.60;6.27;;;15.80;97.30;;;;;;5053139;28;20188;-65
2021/11/16 06:56:04;;;;;;;19.70;5.50;;;15.90;96.80;;;;;;5053760;28;20293;-65
2021/11/16 06:58:35;;;;;;;24.17;6.23;;;16.00;96.30;;;;;;5055224;28;20944;-65
2021/11/16 07:01:04;;;;;;;22.93;5.33;;;16.10;95.90;;;;;;5054908;28;20679;-65
2021/11/16 07:03:31;;;;;;;10.47;5.10;;;16.10;95.50;;;;;;5051425;28;20270;-65
2021/11/16 07:06:04;;;;;;;27.43;5.50;;;16.30;95.20;;;;;;5057716;28;20200;-64
2021/11/16 07:08:48;;;;;;;16.43;5.23;;;16.50;95.00;;;;;;5059378;28;20194;-65
2021/11/16 07:11:23;;;;;;;21.10;5.13;;;16.50;94.90;;;;;;5061697;28;20301;-64
2021/11/16 07:14:09;;;;;;;18.43;5.10;;;16.50;95.10;;;;;;5059809;28;20273;-64
2021/11/16 07:16:42;;;;;;;18.73;5.50;;;16.50;95.10;;;;;;5061003;28;20701;-64
2021/11/16 07:19:12;;;;;;;12.97;5.10;;;16.60;94.70;;;;;;5059908;28;20217;-65
2021/11/16 07:21:54;;;;;;;16.47;5.67;;;16.90;95.20;;;;;;5058557;28;20278;-64
2021/11/16 07:24:28;;;;;;;22.00;5.57;;;17.20;95.00;;;;;;5058522;28;20308;-64
2021/11/16 07:27:05;;;;;;;17.87;6.13;;;17.10;95.20;;;;;;5059101;28;20269;-64
2021/11/16 07:29:42;;;;;;;22.47;6.67;;;17.00;95.50;;;;;;5058022;28;20616;-65
2021/11/16 07:32:30;;;;;;;23.37;6.60;;;17.00;95.90;;;;;;5060327;28;20194;-64
2021/11/16 07:35:06;;;;;;;12.53;5.87;;;16.90;96.30;;;;;;5059178;28;20194;-64
2021/11/16 07:37:40;;;;;;;16.13;5.43;;;17.00;96.10;;;;;;5056049;28;20225;-65
2021/11/16 07:40:16;;;;;;;30.33;6.60;;;17.00;95.70;;;;;;5061413;28;20226;-64
2021/11/16 07:43:06;;;;;;;19.83;6.17;;;17.10;95.90;;;;;;5058231;28;20282;-65
2021/11/16 07:45:43;;;;;;;30.53;6.07;;;17.20;95.60;;;;;;5060678;28;20811;-64
2021/11/16 07:48:18;;;;;;;18.00;5.87;;;17.20;95.20;;;;;;5060009;28;20698;-65
2021/11/16 07:51:01;;;;;;;14.67;5.60;;;17.20;95.00;;;;;;5059069;28;20190;-65
2021/11/16 07:53:41;;;;;;;20.13;5.73;;;17.30;95.10;;;;;;5060008;28;20194;-64
2021/11/16 07:56:10;;;;;;;22.53;6.13;;;17.40;94.50;;;;;;5059285;28;20194;-64
2021/11/16 07:58:43;;;;;;;20.67;6.17;;;17.50;94.50;;;;;;5063051;28;20210;-65
2021/11/16 08:01:19;;;;;;;19.13;5.40;;;17.60;94.40;;;;;;5053584;28;20219;-64
2021/11/16 08:04:05;;;;;;;24.27;6.43;;;17.70;94.50;;;;;;5051887;28;20187;-64
2021/11/16 08:06:40;;;;;;;16.50;5.60;;;17.80;95.00;;;;;;5058636;28;20199;-64
2021/11/16 08:10:00;;;;;;;10.80;5.43;;;17.90;95.40;;;;;;5064660;28;20582;-64
2021/11/16 08:12:13;;;;;;;15.47;5.50;;;18.10;94.80;;;;;;5056723;28;20374;-64
2021/11/16 08:14:39;;;;;;;25.10;5.63;;;18.20;94.40;;;;;;5061949;28;20194;-65
2021/11/16 08:17:09;;;;;;;17.97;5.20;;;18.20;94.40;;;;;;5056050;28;20732;-65
2021/11/16 08:19:40;;;;;;;16.83;6.03;;;18.30;94.30;;;;;;5060511;28;20203;-64
2021/11/16 08:22:15;;;;;;;33.57;6.30;;;18.30;94.10;;;;;;5061993;28;20598;-64
2021/11/16 08:24:48;;;;;;;19.47;5.63;;;18.30;94.00;;;;;;5053250;28;20194;-64
2021/11/16 08:27:30;;;;;;;19.73;6.13;;;18.40;93.70;;;;;;5058834;28;20194;-65
2021/11/16 08:30:16;;;;;;;24.47;6.07;;;18.40;94.00;;;;;;5069885;28;20175;-64
2021/11/16 08:32:46;;;;;;;21.10;5.80;;;18.40;94.50;;;;;;5045781;28;20675;-65
2021/11/16 08:35:13;;;;;;;19.40;5.97;;;18.50;94.60;;;;;;5056594;28;20191;-65
2021/11/16 08:37:43;;;;;;;24.83;5.77;;;18.60;94.80;;;;;;5054813;28;20187;-64
2021/11/16 08:40:23;;;;;;;20.20;6.03;;;18.60;94.90;;;;;;5059138;28;20230;-65
2021/11/16 08:43:13;;;;;;;17.90;6.90;;;18.70;94.90;;;;;;5057449;28;20187;-65
2021/11/16 08:45:47;;;;;;;27.30;6.10;;;18.90;95.10;;;;;;5056109;28;20777;-64
2021/11/16 08:48:23;;;;;;;18.93;5.97;;;18.90;95.30;;;;;;5062321;28;20666;-64
2021/11/16 08:50:58;;;;;;;14.70;6.50;;;19.00;94.70;;;;;;5054972;28;20194;-65
2021/11/16 08:53:28;;;;;;;18.73;5.63;;;19.00;94.10;;;;;;5054462;28;20595;-66
2021/11/16 08:55:56;;;;;;;14.50;5.83;;;19.00;94.60;;;;;;5052604;28;20819;-66
2021/11/16 08:58:28;;;;;;;12.53;5.03;;;19.10;94.40;;;;;;5058503;28;20251;-65
2021/11/16 09:01:07;;;;;;;16.97;6.23;;;19.20;93.50;;;;;;5060700;28;20731;-65
2021/11/16 09:03:42;;;;;;;25.87;5.77;;;19.30;93.60;;;;;;5061256;28;21088;-65
2021/11/16 09:06:22;;;;;;;19.10;5.50;;;19.40;94.00;;;;;;5060611;28;20189;-65
2021/11/16 09:09:12;;;;;;;20.87;5.17;;;19.40;93.80;;;;;;5051971;28;21129;-65
2021/11/16 09:11:55;;;;;;;19.60;6.20;;;19.40;92.80;;;;;;5055379;28;20199;-65
2021/11/16 09:14:22;;;;;;;16.77;5.77;;;19.70;93.90;;;;;;5074937;28;20614;-65
2021/11/16 09:16:49;;;;;;;8.43;5.33;;;19.70;93.90;;;;;;5055520;28;20198;-65
2021/11/16 09:19:31;;;;;;;23.37;5.80;;;19.80;94.20;;;;;;5056859;28;20226;-65
2021/11/16 09:22:00;;;;;;;18.17;5.97;;;19.90;93.60;;;;;;5054907;28;20187;-66
2021/11/16 09:24:37;;;;;;;22.07;5.40;;;20.00;92.40;;;;;;5051825;28;20186;-64
2021/11/16 09:29:34;;;;;;;22.90;5.53;;;20.10;93.30;;;;;;5057563;28;20186;-65
2021/11/16 09:32:10;;;;;;;22.27;6.30;;;20.20;91.60;;;;;;5053848;28;20187;-64
2021/11/16 09:34:41;;;;;;;19.50;4.83;;;20.30;92.80;;;;;;5057836;28;20248;-65
2021/11/16 09:37:22;;;;;;;13.93;5.60;;;20.30;90.90;;;;;;5058149;28;20644;-65
2021/11/16 09:39:57;;;;;;;17.03;5.23;;;20.40;91.10;;;;;;5060370;28;20292;-65
2021/11/16 09:42:30;;;;;;;19.97;5.43;;;20.40;90.90;;;;;;5055368;28;20653;-65
2021/11/16 09:45:08;;;;;;;12.70;5.33;;;20.50;92.30;;;;;;5057256;28;20655;-64
2021/11/16 09:47:40;;;;;;;14.33;5.50;;;20.60;92.70;;;;;;5055299;28;20400;-65
2021/11/16 09:50:08;;;;;;;21.57;5.70;;;20.70;93.10;;;;;;5053941;28;20191;-65
2021/11/16 09:52:59;;;;;;;11.57;5.10;;;20.80;92.70;;;;;;5052262;28;20666;-65
2021/11/16 09:55:34;;;;;;;26.40;5.50;;;20.90;91.70;;;;;;5057841;28;20194;-65
2021/11/16 09:58:06;;;;;;;17.80;5.63;;;21.40;91.90;;;;;;5058562;28;20202;-65
2021/11/16 10:00:53;;;;;;;16.10;5.23;;;21.40;90.60;;;;;;5042913;28;20628;-64
2021/11/16 10:03:23;;;;;;;16.77;5.40;;;21.40;91.70;;;;;;5054695;28;20657;-65
2021/11/16 10:05:53;;;;;;;17.20;5.60;;;21.60;90.10;;;;;;5055460;28;20191;-65
2021/11/16 10:08:22;;;;;;;16.13;5.20;;;21.80;91.10;;;;;;5060426;28;20220;-64
2021/11/16 10:10:58;;;;;;;16.93;5.63;;;21.90;91.00;;;;;;5060001;28;20199;-65
2021/11/16 10:13:29;;;;;;;13.13;4.87;;;22.20;91.30;;;;;;5065408;28;20201;-64
2021/11/16 10:16:00;;;;;;;19.63;5.90;;;22.40;90.90;;;;;;5065535;28;20551;-64
2021/11/16 10:18:28;;;;;;;21.67;6.10;;;22.60;92.60;;;;;;5066066;28;20574;-65
2021/11/16 10:20:56;;;;;;;13.02;5.70;;;23.20;91.50;;;;;;5056854;28;20222;-65
2021/11/16 10:23:46;;;;;;;17.85;5.55;;;24.50;90.70;;;;;;5060285;28;20219;-65
2021/11/16 10:26:15;;;;;;;23.53;5.30;;;25.30;89.00;;;;;;5055938;28;20274;-64
2021/11/16 10:28:48;;;;;;;20.88;5.60;;;25.90;87.60;;;;;;5057780;28;20199;-64
2021/11/16 10:31:27;;;;;;;15.18;5.63;;;26.10;88.90;;;;;;5055545;28;20899;-65
2021/11/16 10:33:56;;;;;;;19.38;6.03;;;25.30;88.00;;;;;;5059082;28;20585;-65
2021/11/16 10:36:23;;;;;;;25.02;5.75;;;24.90;91.60;;;;;;5056189;28;20619;-65
2021/11/16 10:38:59;;;;;;;21.63;6.70;;;24.90;91.50;;;;;;5064620;28;20708;-65
2021/11/16 10:41:39;;;;;;;22.20;5.90;;;24.80;91.60;;;;;;5055009;28;20225;-66
2021/11/16 10:44:14;;;;;;;13.02;5.43;;;24.70;91.20;;;;;;5059293;28;20186;-65
2021/11/16 10:46:45;;;;;;;16.98;5.50;;;24.70;90.70;;;;;;5060564;28;20198;-65
2021/11/16 10:49:17;;;;;;;14.75;5.60;;;24.70;91.20;;;;;;5061416;28;20182;-65
2021/11/16 10:51:47;;;;;;;26.35;6.00;;;24.50;90.90;;;;;;5052886;28;20203;-65
2021/11/16 10:54:15;;;;;;;18.70;5.97;;;24.20;91.10;;;;;;5055307;28;20248;-65
2021/11/16 10:56:43;;;;;;;14.77;6.15;;;24.00;91.70;;;;;;5065936;28;20206;-65
2021/11/16 10:59:19;;;;;;;20.40;6.10;;;23.70;92.00;;;;;;5060121;28;20198;-65
2021/11/16 11:01:51;;;;;;;25.52;6.72;;;23.60;93.40;;;;;;5056554;28;20202;-64
2021/11/16 11:04:27;;;;;;;23.95;6.00;;;23.40;93.20;;;;;;5054204;28;20198;-64
2021/11/16 11:06:54;;;;;;;17.05;6.15;;;23.40;92.90;;;;;;5066273;28;20189;-65
2021/11/16 11:09:23;;;;;;;21.13;6.43;;;23.30;93.70;;;;;;5070771;28;20187;-65
2021/11/16 11:11:54;;;;;;;21.23;5.77;;;23.30;93.20;;;;;;5061699;28;20860;-65
2021/11/16 11:14:37;;;;;;;14.95;6.32;;;23.20;94.10;;;;;;5059616;28;20205;-65
2021/11/16 11:17:08;;;;;;;19.90;5.80;;;23.20;94.00;;;;;;5055255;28;20183;-64
2021/11/16 11:19:38;;;;;;;16.27;5.57;;;23.10;94.70;;;;;;5057992;28;20840;-65
2021/11/16 11:30:19;;;;;;;15.10;6.53;;;22.90;96.40;;;;;;5063867;28;20181;-65
2021/11/16 11:32:52;;;;;;;24.88;6.78;;;22.90;97.50;;;;;;5056795;28;20216;-65
2021/11/16 11:35:25;;;;;;;22.20;6.87;;;22.80;97.80;;;;;;5064337;28;20203;-65
2021/11/16 11:37:57;;;;;;;28.60;7.00;;;22.70;98.50;;;;;;5047591;28;20817;-65
2021/11/16 11:40:37;;;;;;;26.23;7.33;;;22.70;98.80;;;;;;5055979;28;20242;-65
2021/11/16 11:43:21;;;;;;;19.77;6.97;;;22.50;99.10;;;;;;5058362;28;20186;-65
2021/11/16 11:45:49;;;;;;;25.07;6.90;;;22.50;99.00;;;;;;5053224;28;20662;-65
2021/11/16 11:48:21;;;;;;;21.13;7.37;;;22.50;99.20;;;;;;5062654;28;20274;-64
2021/11/16 11:50:54;;;;;;;15.83;6.90;;;22.50;99.50;;;;;;5058115;28;20863;-65
2021/11/16 11:53:25;;;;;;;14.50;7.27;;;22.40;99.90;;;;;;5054246;28;20222;-65
2021/11/16 11:56:06;;;;;;;20.37;7.33;;;22.40;99.90;;;;;;5054155;28;20187;-66
2021/11/16 11:58:41;;;;;;;22.50;7.23;;;22.40;99.90;;;;;;5060711;28;20288;-66
2021/11/16 12:01:17;;;;;;;21.03;7.63;;;22.30;99.90;;;;;;5064120;28;20243;-64
2021/11/16 12:03:48;;;;;;;19.00;7.80;;;22.30;99.90;;;;;;5064340;28;20194;-64
2021/11/16 12:06:15;;;;;;;23.53;8.50;;;22.20;99.90;;;;;;5057165;28;20215;-65
2021/11/16 12:08:41;;;;;;;26.53;7.37;;;22.10;99.90;;;;;;5057949;28;20227;-65
2021/11/16 12:11:08;;;;;;;23.27;8.10;;;22.10;99.90;;;;;;5065928;28;20918;-65
2021/11/16 12:13:40;;;;;;;18.80;8.10;;;22.10;99.90;;;;;;5058094;28;20233;-65
2021/11/16 12:16:37;;;;;;;15.80;8.40;;;22.00;99.90;;;;;;5054447;28;21363;-65
2021/11/16 12:19:14;;;;;;;44.07;8.70;;;22.00;99.90;;;;;;5047689;28;20203;-65
2021/11/16 12:21:48;;;;;;;19.17;8.53;;;21.90;99.90;;;;;;5061022;28;20237;-64
2021/11/16 12:24:33;;;;;;;31.07;9.17;;;21.80;99.90;;;;;;5060922;28;20237;-64
2021/11/16 12:27:07;;;;;;;23.97;8.47;;;21.80;99.90;;;;;;5043587;28;20655;-63
2021/11/16 12:29:46;;;;;;;25.87;8.63;;;21.80;99.90;;;;;;5053939;28;20191;-65
2021/11/16 12:32:27;;;;;;;15.50;8.07;;;21.80;99.90;;;;;;5059073;28;20979;-64
2021/11/16 12:35:13;;;;;;;19.03;8.63;;;21.80;99.90;;;;;;5063732;28;20187;-65
2021/11/16 12:37:50;;;;;;;32.30;9.83;;;21.80;99.90;;;;;;5055226;28;20190;-65
2021/11/16 12:40:33;;;;;;;23.07;8.87;;;21.80;99.90;;;;;;5053484;28;20223;-65
2021/11/16 12:43:14;;;;;;;13.37;8.33;;;21.80;99.90;;;;;;5059387;28;20273;-64
2021/11/16 12:46:00;;;;;;;21.17;8.63;;;21.70;99.90;;;;;;5057874;28;20214;-63
2021/11/16 12:48:49;;;;;;;17.30;8.37;;;21.70;99.90;;;;;;5056090;28;20190;-64
2021/11/16 12:51:22;;;;;;;26.20;8.83;;;21.60;99.90;;;;;;5059978;28;20773;-64
2021/11/16 12:54:20;;;;;;;31.07;7.93;;;21.60;99.90;;;;;;5059131;28;20294;-65
2021/11/16 12:56:46;;;;;;;21.53;7.97;;;21.60;99.90;;;;;;5058008;28;20268;-64
2021/11/16 12:59:42;;;;;;;14.77;7.97;;;21.50;99.90;;;;;;5048263;28;20621;-65
2021/11/16 13:02:54;;;;;;;17.73;8.20;;;21.50;99.90;;;;;;5065113;28;20275;-65
2021/11/16 13:05:41;;;;;;;14.27;7.70;;;21.40;99.90;;;;;;5055391;28;20203;-64
2021/11/16 13:08:11;;;;;;;24.07;8.50;;;21.40;99.90;;;;;;5053999;28;20206;-63
2021/11/16 13:10:55;;;;;;;16.77;8.23;;;21.30;99.90;;;;;;5057294;28;20183;-65
2021/11/16 13:13:25;;;;;;;25.40;8.70;;;21.30;99.90;;;;;;5058328;28;20324;-64
2021/11/16 13:15:59;;;;;;;19.20;8.60;;;21.20;99.90;;;;;;5061012;28;20214;-64
2021/11/16 13:18:39;;;;;;;18.63;8.20;;;21.20;99.90;;;;;;5046831;28;20222;-64
2021/11/16 13:21:17;;;;;;;14.00;7.83;;;21.10;99.90;;;;;;5060266;28;20663;-64
2021/11/16 13:24:00;;;;;;;27.40;8.20;;;21.10;99.90;;;;;;5057101;28;20242;-64
2021/11/16 13:26:37;;;;;;;19.07;8.83;;;21.00;99.90;;;;;;5058029;28;20236;-63
2021/11/16 13:29:25;;;;;;;25.17;8.70;;;21.00;99.90;;;;;;5056371;28;20202;-64